Terminal Aerodrome Forecast
Issued by NWS

Home | Current Version | Previous Version | Text Only | Print | Product List | Glossary On
Versions: 1 2 3 4 5 6 7 8 9 10 11 12 13 14 15 16 17 18 19 20 21 22 23 24 25 26 27
000
FTUS45 KGJT 291728
TAFMTJ
TAFMTJ
TAF
KMTJ 291728Z 2918/3018 VRB03KT P6SM FEW110
     FM291900 34006KT P6SM SCT080 SCT110
     FM300200 14006KT P6SM FEW100 SCT250
     FM301300 VRB02KT P6SM FEW250=

USA.gov is the U.S. government's official web portal to all federal, state and local government web resources and services.